Time;durP1;ratioP1;P1;durP2;ratioP2;P2;SDS_P1;SDS_P2;PMS_P1;PMS_P2;Temp;Humidity;BMP_temperature;BMP_pressure;BME280_temperature;BME280_humidity;BME280_pressure;Samples;Min_cycle;Max_cycle;Signal;HPM_P1;HPM_P2
2023/12/26 05:30:21;;;;;;;0.10;0.10;;;11.70;83.20;;;;;;5890431;23;20023;-79
2023/12/26 05:32:47;;;;;;;0.10;0.10;;;11.70;83.30;;;;;;4926050;29;20383;-79
2023/12/26 05:35:12;;;;;;;0.10;0.10;;;11.80;83.30;;;;;;4928191;29;20108;-79
2023/12/26 05:37:38;;;;;;;0.10;0.10;;;11.80;83.10;;;;;;4908896;29;20028;-79
2023/12/26 05:40:04;;;;;;;0.10;0.10;;;11.70;83.00;;;;;;4923141;29;20111;-79
2023/12/26 05:42:30;;;;;;;0.10;0.10;;;11.70;83.10;;;;;;4905881;29;20018;-79
2023/12/26 05:44:55;;;;;;;0.10;0.10;;;11.70;83.40;;;;;;4922169;29;20091;-79
2023/12/26 05:47:21;;;;;;;0.10;0.10;;;11.70;83.40;;;;;;4921165;29;20059;-79
2023/12/26 05:49:47;;;;;;;0.10;0.10;;;11.70;83.40;;;;;;4929757;29;20487;-78
2023/12/26 05:52:12;;;;;;;0.08;0.08;;;11.70;83.40;;;;;;4941425;29;20032;-78
2023/12/26 05:54:38;;;;;;;0.10;0.10;;;11.70;83.40;;;;;;4923984;29;20402;-77
2023/12/26 05:57:04;;;;;;;0.10;0.10;;;11.80;83.30;;;;;;4923723;29;20059;-78
2023/12/26 05:59:29;;;;;;;0.10;0.10;;;11.80;83.30;;;;;;4908709;29;20028;-78
2023/12/26 06:01:55;;;;;;;0.10;0.10;;;11.80;83.20;;;;;;4927751;29;20030;-78
2023/12/26 06:04:21;;;;;;;0.10;0.10;;;11.80;83.20;;;;;;4932872;29;20110;-76
2023/12/26 06:06:46;;;;;;;0.10;0.10;;;11.80;83.30;;;;;;4931092;29;20040;-77
2023/12/26 06:09:12;;;;;;;0.10;0.10;;;11.80;83.30;;;;;;4906922;29;20035;-78
2023/12/26 06:11:37;;;;;;;0.10;0.10;;;11.80;83.30;;;;;;4901950;29;20033;-77
2023/12/26 06:14:05;;;;;;;0.10;0.10;;;11.80;83.30;;;;;;4902433;29;20560;-81
2023/12/26 06:16:31;;;;;;;0.10;0.10;;;11.80;83.10;;;;;;4909424;29;20024;-82
2023/12/26 06:18:57;;;;;;;0.10;0.10;;;11.80;83.20;;;;;;4912826;29;20038;-79
2023/12/26 06:21:22;;;;;;;0.10;0.10;;;11.80;83.20;;;;;;4921200;29;20024;-75
2023/12/26 06:23:48;;;;;;;0.10;0.10;;;11.80;83.30;;;;;;4920934;29;20036;-77
2023/12/26 06:26:16;;;;;;;0.10;0.10;;;11.90;83.30;;;;;;4908667;29;20507;-78
2023/12/26 06:28:41;;;;;;;0.10;0.10;;;11.90;83.30;;;;;;4919201;29;20032;-78
2023/12/26 06:31:13;;;;;;;0.10;0.10;;;11.90;83.40;;;;;;4919829;29;20596;-82
2023/12/26 06:33:39;;;;;;;0.10;0.10;;;11.90;83.40;;;;;;4903087;29;20067;-77
2023/12/26 06:36:07;;;;;;;0.10;0.10;;;11.90;83.50;;;;;;4920618;29;20076;-88
2023/12/26 06:38:32;;;;;;;0.10;0.10;;;11.80;83.50;;;;;;4918378;29;20036;-87
2023/12/26 06:40:58;;;;;;;0.10;0.10;;;11.80;83.60;;;;;;4920281;29;20395;-78
2023/12/26 06:43:24;;;;;;;0.10;0.10;;;11.80;83.70;;;;;;4901743;29;20032;-78
2023/12/26 06:45:49;;;;;;;0.10;0.10;;;11.80;83.80;;;;;;4919507;29;20380;-78
2023/12/26 06:48:15;;;;;;;0.10;0.10;;;11.80;84.00;;;;;;4902844;29;20032;-78
2023/12/26 06:50:41;;;;;;;0.10;0.10;;;11.80;84.20;;;;;;4901934;29;20119;-78
2023/12/26 06:53:06;;;;;;;0.10;0.10;;;11.80;84.30;;;;;;4901677;29;20032;-78
2023/12/26 06:55:32;;;;;;;0.10;0.10;;;11.80;84.50;;;;;;4903507;29;20416;-78
2023/12/26 06:57:58;;;;;;;0.10;0.10;;;11.80;84.50;;;;;;4903226;29;20032;-78
2023/12/26 07:00:24;;;;;;;0.10;0.10;;;11.80;84.70;;;;;;4906705;29;20039;-78
2023/12/26 07:02:50;;;;;;;0.10;0.10;;;11.80;84.60;;;;;;4891639;29;20024;-78
2023/12/26 07:05:15;;;;;;;0.10;0.10;;;11.80;84.70;;;;;;4922270;29;20074;-78
2023/12/26 07:07:41;;;;;;;0.10;0.10;;;11.80;84.50;;;;;;4920241;29;20032;-78
2023/12/26 07:10:07;;;;;;;0.08;0.08;;;11.80;84.50;;;;;;4903192;29;20040;-78
2023/12/26 07:12:33;;;;;;;0.10;0.10;;;11.80;84.60;;;;;;4902839;29;20029;-78
2023/12/26 07:14:58;;;;;;;0.10;0.10;;;11.80;84.60;;;;;;4903194;29;20044;-78
2023/12/26 07:17:24;;;;;;;0.10;0.10;;;11.80;84.40;;;;;;4902795;29;20123;-78
2023/12/26 07:19:49;;;;;;;0.10;0.10;;;11.80;84.40;;;;;;4915859;29;20040;-78
2023/12/26 07:22:15;;;;;;;0.10;0.10;;;11.80;84.40;;;;;;4902709;29;20044;-78
2023/12/26 07:24:41;;;;;;;0.10;0.10;;;11.80;84.30;;;;;;4902790;29;20133;-78
2023/12/26 07:27:08;;;;;;;0.10;0.10;;;11.80;84.20;;;;;;4902833;29;20127;-78
2023/12/26 07:29:33;;;;;;;0.20;0.20;;;11.80;84.10;;;;;;4902510;29;20395;-77
2023/12/26 07:31:59;;;;;;;0.10;0.10;;;11.80;84.20;;;;;;4921222;29;20144;-78
2023/12/26 07:34:24;;;;;;;0.10;0.10;;;11.90;84.00;;;;;;4920876;29;20047;-78
2023/12/26 07:36:50;;;;;;;0.10;0.10;;;11.90;83.90;;;;;;4921680;29;20419;-78
2023/12/26 07:39:16;;;;;;;0.10;0.10;;;11.90;83.90;;;;;;4900171;29;20096;-79
2023/12/26 07:41:41;;;;;;;0.10;0.10;;;11.90;83.80;;;;;;4934573;29;20035;-78
2023/12/26 07:44:07;;;;;;;0.20;0.20;;;11.90;83.80;;;;;;4912843;29;20066;-79
2023/12/26 07:46:33;;;;;;;0.10;0.10;;;11.90;83.80;;;;;;4885908;29;20029;-78
2023/12/26 07:48:58;;;;;;;0.10;0.10;;;12.00;83.70;;;;;;4901328;29;20032;-79
2023/12/26 07:51:24;;;;;;;0.10;0.10;;;11.90;83.70;;;;;;4902151;29;20032;-78
2023/12/26 07:53:49;;;;;;;0.10;0.10;;;12.00;83.70;;;;;;4902342;29;20061;-78
2023/12/26 07:56:15;;;;;;;0.03;0.03;;;12.00;83.80;;;;;;4902426;29;20373;-79
2023/12/26 07:58:41;;;;;;;0.00;0.00;;;12.10;83.80;;;;;;4902035;29;20024;-79
2023/12/26 08:01:06;;;;;;;0.10;0.10;;;12.00;83.60;;;;;;4915361;29;20028;-78
2023/12/26 08:03:32;;;;;;;0.10;0.10;;;12.00;83.80;;;;;;4920970;29;20040;-79
2023/12/26 08:05:58;;;;;;;0.08;0.08;;;12.00;84.10;;;;;;4918612;29;20032;-78
2023/12/26 08:08:23;;;;;;;0.10;0.10;;;12.00;84.30;;;;;;4902068;29;20467;-79
2023/12/26 08:10:49;;;;;;;0.10;0.10;;;12.00;84.40;;;;;;4901957;29;20059;-78
2023/12/26 08:13:15;;;;;;;0.10;0.10;;;12.10;84.40;;;;;;4885341;29;20064;-78
2023/12/26 08:15:40;;;;;;;0.03;0.03;;;12.10;84.30;;;;;;4901620;29;20029;-78
2023/12/26 08:18:06;;;;;;;0.10;0.10;;;12.20;84.30;;;;;;4902231;29;20055;-78
2023/12/26 08:20:33;;;;;;;0.10;0.10;;;12.10;84.40;;;;;;4901814;29;20021;-78
2023/12/26 08:22:59;;;;;;;0.10;0.10;;;12.20;84.40;;;;;;4901656;29;20052;-78
2023/12/26 08:25:25;;;;;;;0.10;0.10;;;12.20;84.40;;;;;;4901611;29;20084;-78
2023/12/26 08:27:50;;;;;;;0.10;0.10;;;12.20;84.30;;;;;;4901840;29;20496;-78
2023/12/26 08:30:16;;;;;;;0.10;0.10;;;12.20;84.40;;;;;;4901654;29;20037;-78
2023/12/26 08:32:42;;;;;;;0.10;0.10;;;12.30;84.10;;;;;;4902466;29;20136;-78
2023/12/26 08:35:08;;;;;;;0.10;0.10;;;12.30;83.90;;;;;;4903957;29;20111;-79
2023/12/26 08:37:34;;;;;;;0.15;0.15;;;12.40;84.00;;;;;;4902766;29;20066;-78
2023/12/26 08:39:59;;;;;;;0.10;0.10;;;12.50;83.80;;;;;;4906883;29;20032;-79
2023/12/26 08:42:25;;;;;;;0.10;0.10;;;12.60;83.60;;;;;;4939482;29;20063;-79
2023/12/26 08:44:50;;;;;;;0.10;0.10;;;12.60;83.30;;;;;;4920349;29;20024;-78
2023/12/26 08:47:16;;;;;;;0.10;0.10;;;12.70;83.40;;;;;;4909961;29;20040;-78
2023/12/26 08:49:42;;;;;;;0.10;0.10;;;12.70;83.10;;;;;;4900290;29;20033;-79
2023/12/26 08:52:09;;;;;;;0.03;0.03;;;12.70;83.00;;;;;;4901557;29;20044;-78
2023/12/26 08:54:34;;;;;;;0.10;0.10;;;12.70;83.30;;;;;;4901338;29;20037;-78
2023/12/26 08:57:00;;;;;;;0.10;0.10;;;12.70;83.40;;;;;;4908894;29;20505;-78
2023/12/26 08:59:26;;;;;;;0.10;0.10;;;12.80;83.20;;;;;;4903018;29;20075;-79
2023/12/26 09:01:52;;;;;;;0.10;0.10;;;12.80;83.20;;;;;;4906582;29;20063;-78
2023/12/26 09:04:18;;;;;;;0.10;0.10;;;12.90;83.10;;;;;;4918058;29;20028;-79
2023/12/26 09:06:43;;;;;;;0.10;0.10;;;12.90;83.00;;;;;;4920561;29;20036;-78
2023/12/26 09:09:09;;;;;;;0.10;0.10;;;12.90;83.00;;;;;;4903231;29;20498;-78
2023/12/26 09:11:34;;;;;;;0.10;0.10;;;12.90;83.10;;;;;;4900221;29;20045;-78
2023/12/26 09:14:00;;;;;;;0.10;0.10;;;12.80;83.30;;;;;;4901296;29;20100;-78
2023/12/26 09:16:26;;;;;;;0.10;0.10;;;12.80;83.50;;;;;;4901268;29;20116;-78
2023/12/26 09:18:51;;;;;;;0.10;0.10;;;12.80;83.50;;;;;;4901422;29;20080;-79
2023/12/26 09:21:17;;;;;;;0.10;0.10;;;12.70;83.60;;;;;;4912140;29;20455;-79
2023/12/26 09:23:42;;;;;;;0.10;0.10;;;12.80;83.90;;;;;;4920278;29;20032;-79
2023/12/26 09:26:08;;;;;;;0.05;0.05;;;12.70;83.90;;;;;;4908146;29;20043;-79
2023/12/26 09:28:34;;;;;;;0.10;0.10;;;12.80;83.90;;;;;;4901125;29;20239;-79
2023/12/26 09:30:59;;;;;;;0.10;0.10;;;12.80;83.90;;;;;;4901001;29;20052;-79
2023/12/26 09:33:25;;;;;;;0.10;0.10;;;12.80;83.90;;;;;;4903962;29;20032;-78
2023/12/26 09:35:51;;;;;;;0.10;0.10;;;12.90;83.90;;;;;;4902691;29;20029;-79
2023/12/26 09:38:17;;;;;;;0.10;0.10;;;12.90;83.70;;;;;;4888344;29;20025;-79
2023/12/26 09:40:42;;;;;;;0.10;0.10;;;13.10;83.50;;;;;;4921250;29;20115;-78
2023/12/26 09:43:08;;;;;;;0.10;0.10;;;13.10;83.40;;;;;;4928103;29;20021;-78
2023/12/26 09:45:34;;;;;;;0.10;0.10;;;13.10;83.20;;;;;;4923491;29;20111;-78
2023/12/26 09:48:00;;;;;;;0.10;0.10;;;13.20;83.10;;;;;;4923650;29;20103;-77
2023/12/26 09:50:26;;;;;;;0.10;0.10;;;13.20;83.10;;;;;;4918605;29;20082;-79
2023/12/26 09:52:54;;;;;;;0.10;0.10;;;13.20;83.00;;;;;;4887871;29;20039;-79
2023/12/26 09:55:22;;;;;;;0.10;0.10;;;13.30;83.00;;;;;;4904638;29;20036;-78
2023/12/26 09:57:49;;;;;;;0.10;0.10;;;13.30;82.90;;;;;;4904120;29;20033;-79
2023/12/26 10:00:15;;;;;;;0.10;0.10;;;13.30;82.70;;;;;;4911075;29;20038;-79
2023/12/26 10:02:42;;;;;;;0.10;0.10;;;13.40;82.70;;;;;;4923452;29;20114;-79
2023/12/26 10:05:08;;;;;;;0.10;0.10;;;13.40;82.60;;;;;;4917026;29;20024;-79
2023/12/26 10:07:34;;;;;;;0.10;0.10;;;13.40;82.70;;;;;;4904319;29;20484;-79
2023/12/26 10:10:00;;;;;;;0.10;0.10;;;13.50;82.70;;;;;;4904161;29;20102;-79
2023/12/26 10:12:29;;;;;;;0.10;0.10;;;13.50;82.70;;;;;;4904097;29;20021;-78
2023/12/26 10:14:59;;;;;;;0.10;0.10;;;13.50;82.60;;;;;;4901949;29;20163;-79
2023/12/26 10:17:25;;;;;;;0.10;0.10;;;13.60;82.60;;;;;;4904072;29;20029;-79
2023/12/26 10:19:55;;;;;;;0.10;0.10;;;13.60;82.60;;;;;;4903900;29;20460;-79
2023/12/26 10:22:22;;;;;;;0.10;0.10;;;13.60;82.60;;;;;;4904114;29;20028;-79
2023/12/26 10:24:47;;;;;;;0.10;0.10;;;13.60;82.60;;;;;;4903952;29;20081;-78
2023/12/26 10:27:14;;;;;;;0.10;0.10;;;13.70;82.70;;;;;;4901775;29;20032;-79
2023/12/26 10:29:39;;;;;;;0.10;0.10;;;13.70;82.50;;;;;;4903685;29;20172;-79
2023/12/26 10:32:05;;;;;;;0.10;0.10;;;13.70;82.70;;;;;;4903823;29;20072;-79
2023/12/26 10:34:31;;;;;;;0.10;0.10;;;13.60;82.90;;;;;;4919029;29;20127;-79
2023/12/26 10:36:58;;;;;;;0.10;0.10;;;13.60;82.90;;;;;;4903593;29;20024;-79
2023/12/26 10:39:24;;;;;;;0.10;0.10;;;13.60;82.90;;;;;;4917611;29;20024;-78
2023/12/26 10:41:50;;;;;;;0.10;0.10;;;13.60;83.00;;;;;;4930310;29;20483;-79
2023/12/26 10:44:17;;;;;;;0.10;0.10;;;13.70;83.00;;;;;;4886791;29;20112;-78
2023/12/26 10:46:44;;;;;;;0.10;0.10;;;13.70;82.90;;;;;;4896696;29;20555;-79
2023/12/26 10:49:11;;;;;;;0.10;0.10;;;13.70;83.20;;;;;;4903482;29;20092;-78
2023/12/26 10:51:44;;;;;;;0.10;0.10;;;13.70;83.10;;;;;;4886764;29;20059;-78
2023/12/26 10:54:15;;;;;;;;;;;13.80;83.10;;;;;;4897360;29;20055;-76
2023/12/26 10:56:41;;;;;;;0.10;0.10;;;13.80;83.00;;;;;;4886709;29;19959;-76
2023/12/26 10:59:08;;;;;;;0.10;0.10;;;13.80;82.90;;;;;;4910788;29;20436;-76
2023/12/26 13:53:25;;;;;;;0.05;0.05;;;14.30;84.20;;;;;;4904591;29;20054;-77
2023/12/26 13:55:50;;;;;;;0.10;0.10;;;14.30;84.20;;;;;;4904437;29;20024;-77
2023/12/26 13:58:16;;;;;;;0.00;0.00;;;14.30;84.00;;;;;;4904370;29;20037;-77
2023/12/26 14:00:41;;;;;;;0.10;0.10;;;14.30;84.20;;;;;;4914657;29;20024;-77
2023/12/26 14:03:07;;;;;;;0.10;0.10;;;14.20;83.90;;;;;;4904996;29;20040;-77
2023/12/26 14:05:33;;;;;;;0.10;0.10;;;14.30;83.80;;;;;;4923447;29;20056;-77
2023/12/26 14:07:58;;;;;;;0.10;0.10;;;14.30;83.90;;;;;;4923242;29;20033;-77
2023/12/26 14:10:24;;;;;;;0.00;0.00;;;14.30;83.40;;;;;;4908255;29;20448;-77
2023/12/26 14:12:49;;;;;;;0.10;0.10;;;14.30;83.40;;;;;;4903877;29;20040;-77
2023/12/26 14:15:15;;;;;;;0.10;0.10;;;14.30;83.40;;;;;;4904049;29;20112;-77
2023/12/26 14:17:41;;;;;;;0.10;0.10;;;14.30;83.50;;;;;;4904130;29;20029;-77
2023/12/26 14:20:06;;;;;;;0.10;0.10;;;14.30;83.30;;;;;;4904343;29;20073;-77
2023/12/26 14:22:32;;;;;;;0.10;0.10;;;14.30;83.40;;;;;;4903259;29;20036;-77
2023/12/26 14:24:57;;;;;;;0.10;0.10;;;14.30;83.30;;;;;;4904077;29;20056;-77
2023/12/26 14:27:23;;;;;;;0.00;0.00;;;14.10;83.60;;;;;;4903761;29;20064;-77
2023/12/26 14:29:49;;;;;;;0.05;0.05;;;14.00;83.70;;;;;;4903852;29;20025;-77
2023/12/26 14:32:16;;;;;;;0.10;0.10;;;14.00;83.80;;;;;;4904311;29;20057;-76
2023/12/26 14:34:41;;;;;;;0.00;0.00;;;14.00;83.60;;;;;;4915249;29;20020;-77
2023/12/26 14:37:08;;;;;;;0.00;0.00;;;14.10;83.60;;;;;;4904151;29;20036;-77
2023/12/26 14:39:33;;;;;;;0.00;0.00;;;14.00;83.30;;;;;;4903738;29;20017;-77
2023/12/26 14:41:59;;;;;;;0.10;0.10;;;14.00;83.60;;;;;;4921901;29;20455;-77
2023/12/26 14:44:24;;;;;;;0.10;0.10;;;14.00;83.50;;;;;;4904568;29;20033;-77
2023/12/26 14:46:50;;;;;;;0.00;0.00;;;14.00;83.50;;;;;;4919533;29;20032;-77
2023/12/26 14:49:16;;;;;;;0.00;0.00;;;14.00;83.50;;;;;;4922572;29;20020;-77
2023/12/26 14:51:41;;;;;;;0.10;0.10;;;14.00;83.50;;;;;;4922498;29;20060;-77
2023/12/26 14:54:07;;;;;;;0.00;0.00;;;13.90;83.90;;;;;;4919345;29;20051;-77
2023/12/26 14:56:33;;;;;;;0.00;0.00;;;13.90;84.10;;;;;;4902523;29;20032;-76
2023/12/26 14:58:58;;;;;;;0.03;0.03;;;13.90;84.30;;;;;;4903318;29;20548;-78
2023/12/26 15:01:26;;;;;;;0.10;0.10;;;13.90;84.40;;;;;;4918961;29;20029;-77
2023/12/26 15:03:51;;;;;;;0.10;0.10;;;13.90;84.40;;;;;;4920525;29;20024;-77
2023/12/26 15:06:17;;;;;;;0.10;0.10;;;13.80;84.60;;;;;;4920404;29;20039;-79
2023/12/26 15:08:43;;;;;;;0.10;0.10;;;13.80;84.40;;;;;;4922098;29;20028;-77
2023/12/26 15:11:18;;;;;;;0.10;0.10;;;13.80;84.60;;;;;;4905252;29;20084;-78
2023/12/26 15:13:44;;;;;;;0.10;0.10;;;13.80;84.30;;;;;;4921859;29;20028;-77
2023/12/26 15:16:19;;;;;;;0.10;0.10;;;13.80;84.30;;;;;;4908039;29;20040;-77
2023/12/26 15:18:47;;;;;;;0.10;0.10;;;13.80;84.20;;;;;;4902928;29;20052;-77
2023/12/26 15:21:12;;;;;;;0.10;0.10;;;13.70;84.00;;;;;;4902773;29;20054;-77
2023/12/26 15:23:39;;;;;;;0.10;0.10;;;13.70;84.30;;;;;;4902996;29;20028;-77
2023/12/26 15:26:13;;;;;;;0.10;0.10;;;13.70;84.10;;;;;;4902741;29;20444;-77
2023/12/26 15:28:43;;;;;;;0.08;0.08;;;13.70;84.20;;;;;;4902715;29;20377;-77
2023/12/26 15:31:13;;;;;;;0.10;0.10;;;13.70;84.10;;;;;;4909819;29;20127;-78
2023/12/26 15:33:39;;;;;;;0.10;0.10;;;13.70;83.90;;;;;;4913354;29;20035;-77
2023/12/26 15:36:05;;;;;;;0.10;0.10;;;13.70;83.90;;;;;;4913263;29;20028;-77
2023/12/26 15:38:31;;;;;;;0.00;0.00;;;13.70;83.90;;;;;;4902609;29;20036;-77
2023/12/26 15:40:57;;;;;;;0.08;0.08;;;13.70;83.90;;;;;;4923002;29;20470;-77
2023/12/26 15:43:23;;;;;;;0.10;0.10;;;13.60;84.00;;;;;;4937001;29;20027;-77
2023/12/26 15:45:49;;;;;;;0.10;0.10;;;13.60;84.20;;;;;;4885741;29;20092;-77
2023/12/26 15:48:14;;;;;;;0.10;0.10;;;13.60;84.10;;;;;;4902531;29;20032;-77
2023/12/26 15:50:40;;;;;;;0.00;0.00;;;13.60;84.10;;;;;;4902429;29;20559;-77
2023/12/26 15:53:06;;;;;;;0.10;0.10;;;13.60;84.00;;;;;;4902173;29;20461;-77
2023/12/26 15:55:32;;;;;;;0.10;0.10;;;13.60;83.70;;;;;;4902397;29;20060;-77
2023/12/26 15:57:57;;;;;;;0.00;0.00;;;13.60;83.50;;;;;;4885576;29;20051;-77
2023/12/26 16:00:23;;;;;;;0.10;0.10;;;13.60;83.40;;;;;;4910120;29;20087;-77
2023/12/26 16:02:48;;;;;;;0.10;0.10;;;13.50;83.20;;;;;;4917247;29;20036;-77
2023/12/26 16:05:14;;;;;;;0.10;0.10;;;13.60;83.20;;;;;;4921056;29;20032;-77
2023/12/26 16:07:40;;;;;;;0.10;0.10;;;13.50;83.10;;;;;;4921148;29;20027;-77
2023/12/26 16:10:06;;;;;;;0.00;0.00;;;13.60;83.10;;;;;;4908743;29;20111;-77
2023/12/26 16:12:33;;;;;;;0.00;0.00;;;13.50;83.00;;;;;;4902062;29;20520;-79
2023/12/26 16:14:58;;;;;;;0.10;0.10;;;13.50;83.00;;;;;;4901001;29;20032;-77
2023/12/26 16:17:25;;;;;;;0.10;0.10;;;13.50;83.00;;;;;;4901808;29;20113;-77
2023/12/26 16:19:50;;;;;;;0.10;0.10;;;13.40;82.90;;;;;;4903641;29;20084;-77
2023/12/26 16:22:16;;;;;;;0.00;0.00;;;13.40;83.00;;;;;;4920913;29;20028;-77
2023/12/26 16:24:42;;;;;;;0.00;0.00;;;13.40;82.80;;;;;;4892353;29;20116;-77
2023/12/26 16:27:07;;;;;;;0.10;0.10;;;13.30;83.10;;;;;;4902074;29;20024;-77
2023/12/26 16:29:36;;;;;;;0.10;0.10;;;13.30;83.10;;;;;;4901903;29;20136;-77
2023/12/26 16:32:02;;;;;;;0.10;0.10;;;13.30;83.20;;;;;;4901698;29;20049;-77
2023/12/26 16:34:28;;;;;;;0.10;0.10;;;13.30;83.10;;;;;;4908806;29;20037;-77
2023/12/26 16:36:53;;;;;;;0.05;0.05;;;13.30;83.10;;;;;;4901835;29;20036;-77
2023/12/26 16:39:19;;;;;;;0.08;0.08;;;13.30;83.20;;;;;;4900322;29;20025;-77
2023/12/26 16:42:00;;;;;;;0.00;0.00;;;13.30;83.10;;;;;;4931454;29;20039;-77
2023/12/26 16:44:26;;;;;;;0.10;0.10;;;13.30;83.10;;;;;;4901031;29;20020;-77
2023/12/26 16:46:52;;;;;;;0.10;0.10;;;13.30;83.00;;;;;;4901757;29;20087;-77
2023/12/26 16:49:18;;;;;;;0.10;0.10;;;13.30;83.10;;;;;;4906228;29;20056;-77
2023/12/26 16:51:43;;;;;;;0.10;0.10;;;13.30;83.10;;;;;;4901663;29;20044;-77
2023/12/26 16:54:09;;;;;;;0.00;0.00;;;13.30;82.90;;;;;;4885054;29;20097;-77
2023/12/26 16:56:34;;;;;;;0.10;0.10;;;13.30;82.70;;;;;;4901960;29;20033;-77
2023/12/26 16:59:00;;;;;;;0.10;0.10;;;13.30;82.80;;;;;;4902788;29;20472;-77
2023/12/26 17:01:26;;;;;;;0.00;0.00;;;13.30;82.80;;;;;;4903869;29;20924;-77
2023/12/26 17:03:51;;;;;;;0.10;0.10;;;13.30;82.50;;;;;;4915584;29;20611;-77
2023/12/26 17:06:17;;;;;;;0.00;0.00;;;13.20;82.60;;;;;;4920427;29;20509;-76
2023/12/26 17:08:43;;;;;;;0.10;0.10;;;13.20;82.40;;;;;;4918034;29;20032;-77
2023/12/26 17:11:11;;;;;;;0.10;0.10;;;13.20;82.60;;;;;;4920272;29;20036;-77
2023/12/26 17:13:36;;;;;;;0.10;0.10;;;13.30;82.40;;;;;;4903485;29;20038;-77
2023/12/26 17:16:02;;;;;;;0.10;0.10;;;13.20;82.30;;;;;;4917946;29;20052;-77
2023/12/26 17:18:28;;;;;;;0.10;0.10;;;13.20;82.00;;;;;;4901379;29;20547;-77
2023/12/26 17:20:53;;;;;;;0.10;0.10;;;13.20;82.20;;;;;;4899789;29;20032;-77
2023/12/26 17:23:19;;;;;;;0.03;0.03;;;13.20;81.90;;;;;;4901416;29;20087;-77
2023/12/26 17:25:45;;;;;;;0.10;0.10;;;13.20;81.80;;;;;;4901510;29;20033;-77
2023/12/26 17:28:11;;;;;;;0.10;0.10;;;13.10;81.70;;;;;;4901553;29;20416;-77
2023/12/26 17:30:37;;;;;;;0.00;0.00;;;13.10;81.90;;;;;;4885185;29;20571;-77
2023/12/26 17:33:03;;;;;;;0.00;0.00;;;13.20;82.00;;;;;;4908132;29;20139;-77
2023/12/26 17:35:28;;;;;;;0.00;0.00;;;13.10;81.80;;;;;;4920025;29;20389;-77
2023/12/26 17:37:54;;;;;;;0.10;0.10;;;13.20;81.50;;;;;;4908181;29;20032;-77
2023/12/26 17:40:20;;;;;;;0.10;0.10;;;13.20;81.70;;;;;;4919953;29;20917;-77
2023/12/26 17:42:45;;;;;;;0.10;0.10;;;13.20;81.70;;;;;;4919150;29;20111;-77
2023/12/26 17:45:11;;;;;;;0.10;0.10;;;13.20;81.30;;;;;;4914384;29;20032;-77
2023/12/26 17:47:39;;;;;;;0.00;0.00;;;13.10;81.30;;;;;;4900240;29;20056;-77
2023/12/26 17:50:05;;;;;;;0.00;0.00;;;13.10;81.50;;;;;;4901151;29;20032;-77
2023/12/26 17:52:30;;;;;;;0.10;0.10;;;13.10;81.30;;;;;;4901228;29;20052;-77
2023/12/26 17:54:56;;;;;;;0.10;0.10;;;13.10;81.30;;;;;;4900802;29;20047;-77
2023/12/26 17:57:22;;;;;;;0.10;0.10;;;13.20;81.30;;;;;;4903222;29;20108;-77
2023/12/26 17:59:47;;;;;;;0.10;0.10;;;13.20;81.40;;;;;;4907508;29;20035;-77
2023/12/26 18:02:13;;;;;;;0.00;0.00;;;13.10;81.20;;;;;;4922993;29;20037;-77
2023/12/26 18:04:38;;;;;;;0.00;0.00;;;13.10;81.30;;;;;;4923536;29;20028;-77
2023/12/26 18:07:04;;;;;;;0.00;0.00;;;13.10;81.00;;;;;;4923220;29;20503;-77
2023/12/26 18:09:30;;;;;;;0.00;0.00;;;13.10;81.10;;;;;;4917693;29;20103;-77
2023/12/26 18:11:55;;;;;;;0.03;0.03;;;13.10;81.10;;;;;;4903050;29;20075;-77
2023/12/26 18:14:21;;;;;;;0.00;0.00;;;13.10;80.90;;;;;;4904204;29;20051;-77
2023/12/26 18:16:47;;;;;;;0.08;0.08;;;13.00;80.60;;;;;;4918692;29;20796;-77
2023/12/26 18:19:12;;;;;;;0.10;0.10;;;13.00;81.00;;;;;;4903866;29;20096;-77
2023/12/26 18:21:39;;;;;;;0.10;0.10;;;13.00;80.70;;;;;;4904094;29;20037;-77
2023/12/26 18:24:05;;;;;;;0.10;0.10;;;13.00;80.90;;;;;;4904329;29;20033;-77
2023/12/26 18:26:31;;;;;;;0.00;0.00;;;13.00;80.80;;;;;;4904331;29;20043;-77
2023/12/26 18:28:56;;;;;;;0.00;0.00;;;13.00;80.80;;;;;;4906819;29;20041;-77
2023/12/26 18:31:22;;;;;;;0.00;0.00;;;13.00;81.00;;;;;;4902342;29;20412;-77
2023/12/26 18:33:48;;;;;;;0.03;0.03;;;12.90;81.00;;;;;;4908058;29;20071;-77
2023/12/26 18:36:13;;;;;;;0.00;0.00;;;13.00;81.10;;;;;;4903905;29;20024;-77
2023/12/26 18:38:39;;;;;;;0.10;0.10;;;12.90;80.70;;;;;;4918955;29;20048;-77
2023/12/26 18:41:05;;;;;;;0.00;0.00;;;12.90;80.90;;;;;;4922340;29;20032;-77
2023/12/26 18:43:31;;;;;;;0.00;0.00;;;12.90;80.70;;;;;;4904059;29;20029;-77
2023/12/26 18:45:56;;;;;;;0.00;0.00;;;12.90;80.90;;;;;;4903770;29;20028;-77
2023/12/26 18:48:25;;;;;;;0.10;0.10;;;13.00;80.90;;;;;;4903396;29;20037;-77
2023/12/26 18:50:51;;;;;;;0.10;0.10;;;12.90;80.70;;;;;;4903632;29;20511;-77
2023/12/26 18:53:16;;;;;;;0.10;0.10;;;12.80;80.90;;;;;;4907248;29;20028;-77
2023/12/26 18:55:42;;;;;;;0.10;0.10;;;12.80;80.60;;;;;;4912069;29;20016;-77
2023/12/26 18:58:08;;;;;;;0.00;0.00;;;12.80;80.90;;;;;;4915884;29;20033;-77
2023/12/26 19:00:33;;;;;;;0.00;0.00;;;12.80;80.80;;;;;;4912641;29;20125;-77
2023/12/26 19:02:59;;;;;;;0.10;0.10;;;12.80;80.60;;;;;;4920046;29;20028;-77
2023/12/26 19:05:24;;;;;;;0.08;0.08;;;12.80;80.60;;;;;;4921877;29;20028;-77
2023/12/26 19:07:50;;;;;;;0.10;0.10;;;12.80;80.60;;;;;;4920047;29;20020;-77
2023/12/26 19:10:16;;;;;;;0.00;0.00;;;12.90;80.40;;;;;;4919832;29;20024;-77
2023/12/26 19:12:47;;;;;;;0.08;0.08;;;12.80;80.10;;;;;;4903089;29;20029;-77
2023/12/26 19:15:14;;;;;;;0.08;0.08;;;12.80;80.40;;;;;;4903065;29;20090;-77
2023/12/26 19:17:39;;;;;;;0.10;0.10;;;12.80;80.40;;;;;;4903070;29;20025;-77
2023/12/26 19:20:09;;;;;;;0.10;0.10;;;12.80;80.20;;;;;;4903025;29;20035;-77
2023/12/26 19:22:35;;;;;;;0.10;0.10;;;12.70;80.40;;;;;;4917719;29;20174;-77
2023/12/26 19:25:00;;;;;;;0.10;0.10;;;12.70;80.40;;;;;;4903114;29;20028;-77
2023/12/26 19:27:26;;;;;;;0.10;0.10;;;12.70;80.70;;;;;;4902615;29;20693;-77
2023/12/26 19:29:52;;;;;;;0.10;0.10;;;12.60;80.70;;;;;;4920006;29;20407;-78
2023/12/26 19:32:17;;;;;;;0.10;0.10;;;12.60;81.10;;;;;;4917138;29;20063;-77
2023/12/26 19:34:43;;;;;;;0.10;0.10;;;12.60;81.10;;;;;;4921724;29;20119;-76
2023/12/26 19:37:09;;;;;;;0.10;0.10;;;12.60;81.20;;;;;;4920505;29;20398;-77
2023/12/26 19:39:35;;;;;;;0.10;0.10;;;12.50;81.40;;;;;;4921653;29;20020;-77
2023/12/26 19:42:00;;;;;;;0.10;0.10;;;12.50;81.60;;;;;;4903975;29;20040;-77
2023/12/26 19:44:27;;;;;;;0.10;0.10;;;12.40;81.70;;;;;;4902687;29;20028;-77
2023/12/26 19:46:53;;;;;;;0.10;0.10;;;12.30;81.90;;;;;;4902314;29;20050;-77
2023/12/26 19:49:20;;;;;;;0.10;0.10;;;12.30;81.90;;;;;;4902499;29;20021;-77
2023/12/26 19:51:46;;;;;;;0.10;0.10;;;12.30;81.90;;;;;;4902465;29;20028;-77
2023/12/26 19:54:12;;;;;;;0.10;0.10;;;12.30;82.00;;;;;;4917192;29;20179;-77
2023/12/26 19:56:39;;;;;;;0.10;0.10;;;12.20;82.10;;;;;;4902133;29;20608;-77
2023/12/26 19:59:05;;;;;;;0.10;0.10;;;12.30;82.10;;;;;;4902336;29;20177;-77
2023/12/26 20:01:31;;;;;;;0.10;0.10;;;12.30;82.10;;;;;;4919627;29;20418;-77
2023/12/26 20:03:56;;;;;;;0.10;0.10;;;12.40;81.90;;;;;;4915759;29;20029;-77
2023/12/26 20:06:22;;;;;;;0.10;0.10;;;12.40;81.90;;;;;;4902343;29;20044;-77
2023/12/26 20:08:48;;;;;;;0.10;0.10;;;12.40;81.90;;;;;;4902269;29;20024;-77
2023/12/26 20:11:14;;;;;;;0.10;0.10;;;12.40;81.60;;;;;;4902046;29;20040;-77
2023/12/26 20:13:41;;;;;;;0.10;0.10;;;12.30;81.90;;;;;;4900977;29;20116;-77
2023/12/26 20:16:06;;;;;;;0.10;0.10;;;12.30;81.80;;;;;;4916796;29;20029;-77
2023/12/26 20:18:32;;;;;;;0.10;0.10;;;12.30;81.70;;;;;;4901760;29;20922;-77
2023/12/26 20:20:58;;;;;;;0.10;0.10;;;12.30;81.80;;;;;;4901879;29;20377;-77
2023/12/26 20:23:23;;;;;;;0.10;0.10;;;12.30;81.70;;;;;;4910557;29;20028;-77
2023/12/26 20:25:49;;;;;;;0.10;0.10;;;12.20;81.50;;;;;;4902078;29;20036;-77
2023/12/26 20:28:16;;;;;;;0.10;0.10;;;12.10;81.80;;;;;;4900602;29;20028;-77
2023/12/26 20:30:41;;;;;;;0.03;0.03;;;12.00;81.80;;;;;;4901695;29;20060;-77
2023/12/26 20:33:07;;;;;;;0.10;0.10;;;12.00;82.20;;;;;;4909025;29;20036;-80
2023/12/26 20:35:33;;;;;;;0.05;0.05;;;11.90;81.90;;;;;;4903763;29;20107;-76
2023/12/26 20:37:59;;;;;;;0.10;0.10;;;11.80;82.10;;;;;;4905682;29;20033;-77
2023/12/26 20:40:24;;;;;;;0.10;0.10;;;11.80;82.20;;;;;;4913704;29;20106;-77
2023/12/26 20:42:50;;;;;;;0.10;0.10;;;11.80;82.20;;;;;;4931158;29;20012;-77
2023/12/26 20:45:15;;;;;;;0.10;0.10;;;11.80;82.30;;;;;;4915208;29;20542;-77
2023/12/26 20:47:41;;;;;;;0.00;0.00;;;11.80;82.10;;;;;;4901881;29;20051;-77
2023/12/26 20:50:07;;;;;;;0.10;0.10;;;11.80;82.10;;;;;;4893356;29;20124;-78
2023/12/26 20:52:33;;;;;;;0.10;0.10;;;11.80;82.00;;;;;;4901738;29;20052;-77
2023/12/26 20:54:59;;;;;;;0.10;0.10;;;11.80;82.10;;;;;;4901623;29;20061;-77
2023/12/26 20:57:24;;;;;;;0.10;0.10;;;11.80;82.00;;;;;;4901251;29;20111;-77
2023/12/26 20:59:51;;;;;;;0.03;0.03;;;11.80;81.90;;;;;;4904824;29;20904;-77
2023/12/26 21:02:16;;;;;;;0.10;0.10;;;11.70;81.80;;;;;;4910468;29;20040;-77